Time;durP1;ratioP1;P1;durP2;ratioP2;P2;SDS_P1;SDS_P2;PMS_P1;PMS_P2;Temp;Humidity;BMP_temperature;BMP_pressure;BME280_temperature;BME280_humidity;BME280_pressure;Samples;Min_cycle;Max_cycle;Signal;HPM_P1;HPM_P2
2023/09/21 00:00:38;;;;;;;4.40;1.40;;;18.80;69.50;;;;;;4988697;28;20142;-89
2023/09/21 00:03:07;;;;;;;4.47;1.47;;;18.80;69.40;;;;;;4971573;28;20051;-89
2023/09/21 00:05:35;;;;;;;4.70;1.63;;;18.80;69.50;;;;;;4989643;28;20354;-89
2023/09/21 00:08:04;;;;;;;3.47;1.10;;;18.80;69.50;;;;;;5007278;28;20051;-90
2023/09/21 00:10:33;;;;;;;4.75;1.70;;;18.80;69.40;;;;;;4958548;28;20055;-89
2023/09/21 00:13:00;;;;;;;4.68;1.50;;;18.80;69.40;;;;;;4987246;28;20111;-90
2023/09/21 00:15:31;;;;;;;4.43;1.30;;;18.80;69.40;;;;;;4991998;28;20055;-89
2023/09/21 00:17:59;;;;;;;5.18;1.63;;;18.80;69.40;;;;;;4970862;28;20282;-90
2023/09/21 00:20:35;;;;;;;4.15;1.40;;;18.80;69.50;;;;;;4987496;28;20047;-90
2023/09/21 00:23:06;;;;;;;4.15;1.60;;;18.80;69.50;;;;;;5019537;28;20086;-89
2023/09/21 00:25:33;;;;;;;5.20;2.05;;;18.80;69.40;;;;;;4991730;28;20051;-90
2023/09/21 00:28:07;;;;;;;4.73;1.73;;;18.80;69.50;;;;;;5004674;28;20150;-89
2023/09/21 00:30:35;;;;;;;4.32;1.30;;;18.70;69.40;;;;;;5005662;28;20299;-90
2023/09/21 00:33:07;;;;;;;3.95;1.45;;;18.70;69.40;;;;;;5007538;28;20110;-89
2023/09/21 00:35:39;;;;;;;4.00;1.70;;;18.70;69.40;;;;;;5000039;28;20159;-90
2023/09/21 00:38:10;;;;;;;5.78;1.70;;;18.70;69.40;;;;;;4989435;28;20058;-89
2023/09/21 00:40:38;;;;;;;5.50;1.70;;;18.70;69.30;;;;;;4971213;28;20201;-90
2023/09/21 00:43:07;;;;;;;5.82;1.70;;;18.70;69.30;;;;;;4954704;28;20259;-89
2023/09/21 00:45:38;;;;;;;5.65;1.70;;;18.70;69.20;;;;;;4970731;28;20063;-90
2023/09/21 00:48:10;;;;;;;5.22;1.63;;;18.70;69.20;;;;;;4975202;28;20061;-90
2023/09/21 00:50:40;;;;;;;4.63;1.48;;;18.70;69.10;;;;;;5002483;28;20549;-90
2023/09/21 00:53:12;;;;;;;5.83;1.90;;;18.70;69.10;;;;;;4987104;28;20063;-89
2023/09/21 00:55:48;;;;;;;5.50;1.50;;;18.70;69.20;;;;;;4971199;28;20283;-90
2023/09/21 00:58:15;;;;;;;5.40;1.55;;;18.70;69.00;;;;;;5002289;28;20051;-89
2023/09/21 01:00:45;;;;;;;4.45;1.35;;;18.70;69.10;;;;;;5002747;28;20055;-89
2023/09/21 01:03:14;;;;;;;5.78;1.90;;;18.70;69.00;;;;;;4954460;28;20059;-89
2023/09/21 01:05:44;;;;;;;4.40;1.67;;;18.70;69.00;;;;;;5003174;28;20700;-88
2023/09/21 01:08:16;;;;;;;4.72;1.60;;;18.70;69.00;;;;;;4972063;28;20278;-89
2023/09/21 01:10:48;;;;;;;4.82;1.88;;;18.80;68.70;;;;;;4984851;28;20067;-90
2023/09/21 01:13:16;;;;;;;4.53;1.77;;;18.80;68.80;;;;;;4974116;28;20069;-89
2023/09/21 01:15:46;;;;;;;5.03;1.63;;;18.80;68.70;;;;;;4970519;28;20055;-89
2023/09/21 01:18:16;;;;;;;4.87;1.70;;;18.80;68.70;;;;;;5003297;28;20055;-89
2023/09/21 01:20:54;;;;;;;5.10;1.80;;;18.80;68.60;;;;;;4970633;28;20853;-89
2023/09/21 01:23:32;;;;;;;4.32;1.50;;;18.80;68.50;;;;;;5014565;28;20141;-89
2023/09/21 01:26:00;;;;;;;4.55;1.40;;;18.90;68.20;;;;;;4990249;28;20645;-89
2023/09/21 01:28:29;;;;;;;4.65;1.75;;;18.90;68.00;;;;;;4977065;28;20051;-89
2023/09/21 01:30:57;;;;;;;3.83;1.20;;;18.90;68.00;;;;;;5010131;28;20195;-89
2023/09/21 01:33:24;;;;;;;4.18;1.60;;;18.90;67.90;;;;;;5004104;28;20343;-89
2023/09/21 01:35:51;;;;;;;5.47;1.45;;;19.00;67.80;;;;;;5003659;28;20063;-89
2023/09/21 01:38:19;;;;;;;5.15;1.52;;;19.00;67.80;;;;;;5003500;28;20059;-90
2023/09/21 01:40:48;;;;;;;4.75;1.40;;;19.00;67.70;;;;;;5017551;28;20073;-89
2023/09/21 01:43:16;;;;;;;4.27;1.53;;;19.00;67.70;;;;;;4978738;28;20059;-89
2023/09/21 01:45:48;;;;;;;5.25;1.80;;;19.00;67.70;;;;;;4986164;28;20848;-90
2023/09/21 01:48:18;;;;;;;4.82;1.50;;;19.00;67.50;;;;;;4970318;28;20063;-89
2023/09/21 01:50:48;;;;;;;5.25;1.48;;;19.00;67.30;;;;;;4988668;28;20047;-89
2023/09/21 01:53:16;;;;;;;4.22;1.50;;;19.00;67.50;;;;;;4995431;28;20059;-89
2023/09/21 01:55:47;;;;;;;4.60;1.70;;;19.10;67.30;;;;;;4986680;28;20082;-89
2023/09/21 01:58:17;;;;;;;4.50;1.50;;;19.10;67.20;;;;;;4985965;28;20263;-90
2023/09/21 02:00:47;;;;;;;5.07;1.30;;;19.10;67.10;;;;;;4986321;28;20548;-89
2023/09/21 02:03:17;;;;;;;4.72;1.52;;;19.10;67.10;;;;;;5002535;28;20066;-90
2023/09/21 02:05:47;;;;;;;4.00;1.50;;;19.10;67.10;;;;;;5004337;28;20069;-89
2023/09/21 02:08:17;;;;;;;4.03;1.50;;;19.10;67.20;;;;;;4987448;28;20139;-89
2023/09/21 02:10:50;;;;;;;5.10;1.50;;;19.10;67.00;;;;;;4969789;28;20283;-90
2023/09/21 02:13:19;;;;;;;5.35;1.95;;;19.10;66.80;;;;;;4985421;28;20079;-89
2023/09/21 02:15:47;;;;;;;4.55;1.50;;;19.10;67.00;;;;;;5005608;28;20093;-90
2023/09/21 02:18:19;;;;;;;5.13;1.50;;;19.10;67.00;;;;;;4987157;28;20047;-90
2023/09/21 02:20:50;;;;;;;5.23;1.90;;;19.10;67.10;;;;;;4986281;28;20055;-90
2023/09/21 02:23:20;;;;;;;5.97;1.58;;;19.10;67.10;;;;;;4968611;28;20267;-89
2023/09/21 02:25:47;;;;;;;4.78;1.60;;;19.10;66.90;;;;;;4983038;28;20083;-89
2023/09/21 02:28:14;;;;;;;4.18;1.40;;;19.10;66.80;;;;;;4999391;28;20158;-89
2023/09/21 02:30:47;;;;;;;4.10;1.65;;;19.10;67.00;;;;;;4986435;28;20051;-89
2023/09/21 02:33:17;;;;;;;4.37;1.50;;;19.10;66.90;;;;;;4988892;28;20066;-89
2023/09/21 02:35:46;;;;;;;5.03;1.60;;;19.10;66.80;;;;;;5002380;28;20307;-90
2023/09/21 02:38:14;;;;;;;4.10;1.60;;;19.10;66.60;;;;;;4985658;28;20058;-89
2023/09/21 02:40:45;;;;;;;5.00;1.60;;;19.10;66.70;;;;;;5016727;28;20110;-90
2023/09/21 02:43:13;;;;;;;4.97;1.55;;;19.10;66.70;;;;;;4989619;28;20095;-89
2023/09/21 02:45:40;;;;;;;5.13;1.40;;;19.10;66.60;;;;;;4985946;28;20414;-89
2023/09/21 02:48:10;;;;;;;5.05;1.40;;;19.10;66.60;;;;;;4968675;28;20252;-90
2023/09/21 02:50:38;;;;;;;5.75;1.80;;;19.10;66.60;;;;;;4953322;28;20062;-89
2023/09/21 02:53:12;;;;;;;4.03;1.40;;;19.10;66.40;;;;;;4985405;28;20079;-89
2023/09/21 02:55:41;;;;;;;4.95;1.45;;;19.10;66.50;;;;;;4985594;28;20604;-90
2023/09/21 02:58:10;;;;;;;5.80;1.40;;;19.10;66.60;;;;;;4998406;28;20054;-90
2023/09/21 03:01:25;;;;;;;4.80;1.45;;;19.00;66.70;;;;;;4970360;28;20362;-89
2023/09/21 03:03:58;;;;;;;5.30;1.65;;;19.10;66.70;;;;;;4953080;28;20094;-89
2023/09/21 03:06:27;;;;;;;4.65;1.60;;;19.10;66.60;;;;;;4952694;28;20395;-89
2023/09/21 03:08:54;;;;;;;4.20;1.33;;;19.10;66.60;;;;;;4984703;28;20080;-90
2023/09/21 03:11:22;;;;;;;4.97;1.70;;;19.10;66.50;;;;;;4969011;28;20747;-90
2023/09/21 03:13:49;;;;;;;3.47;1.30;;;19.10;66.50;;;;;;4985448;28;20670;-89
2023/09/21 03:16:17;;;;;;;4.28;1.40;;;19.10;66.50;;;;;;4981981;28;20504;-90
2023/09/21 03:18:46;;;;;;;7.03;1.83;;;19.10;66.50;;;;;;4998458;28;20511;-89
2023/09/21 03:21:15;;;;;;;4.78;1.55;;;19.00;66.60;;;;;;4952976;28;20055;-90
2023/09/21 03:23:44;;;;;;;3.73;1.40;;;19.10;66.70;;;;;;4974200;28;20063;-88
2023/09/21 03:26:13;;;;;;;4.10;1.60;;;19.10;66.60;;;;;;4969373;28;20778;-90
2023/09/21 03:28:42;;;;;;;4.25;1.63;;;19.10;66.60;;;;;;4968542;28;20149;-90
2023/09/21 03:31:12;;;;;;;4.07;1.45;;;19.00;66.60;;;;;;4968947;28;20055;-90
2023/09/21 03:33:40;;;;;;;4.60;1.40;;;19.00;66.60;;;;;;4992704;28;20937;-90
2023/09/21 03:36:13;;;;;;;5.37;1.67;;;19.00;66.60;;;;;;4972730;28;20059;-89
2023/09/21 03:38:42;;;;;;;4.13;1.60;;;19.00;66.60;;;;;;4987948;28;20347;-89
2023/09/21 03:41:10;;;;;;;6.05;1.60;;;19.00;66.60;;;;;;4980491;28;20138;-90
2023/09/21 03:43:39;;;;;;;4.40;1.80;;;19.00;66.60;;;;;;4988340;28;20067;-89
2023/09/21 03:46:06;;;;;;;5.18;1.50;;;19.00;66.60;;;;;;4995495;28;20058;-89
2023/09/21 03:48:35;;;;;;;5.87;1.47;;;19.00;66.70;;;;;;4988180;28;20047;-89
2023/09/21 03:51:04;;;;;;;4.10;1.48;;;19.00;66.80;;;;;;5011811;28;20283;-88
2023/09/21 03:53:33;;;;;;;3.50;1.60;;;19.00;66.80;;;;;;4988126;28;20065;-88
2023/09/21 03:56:02;;;;;;;3.90;1.70;;;19.00;66.90;;;;;;4955839;28;20048;-89
2023/09/21 03:58:30;;;;;;;3.42;1.30;;;19.00;66.90;;;;;;4965549;28;20062;-89
2023/09/21 04:01:04;;;;;;;5.03;1.70;;;18.90;66.90;;;;;;4972134;28;20063;-90
2023/09/21 04:03:32;;;;;;;5.55;1.45;;;18.90;66.90;;;;;;4971702;28;20290;-90
2023/09/21 04:06:03;;;;;;;5.07;1.65;;;18.90;67.00;;;;;;4991565;28;20047;-90
2023/09/21 04:08:31;;;;;;;3.53;1.38;;;18.90;67.00;;;;;;5005643;28;20773;-89
2023/09/21 04:11:00;;;;;;;4.40;1.80;;;18.90;67.10;;;;;;4988609;28;20487;-89
2023/09/21 04:13:28;;;;;;;4.17;1.50;;;18.90;67.10;;;;;;4955347;28;20051;-90
2023/09/21 04:15:55;;;;;;;4.53;1.45;;;18.90;67.20;;;;;;4970224;28;20255;-89
2023/09/21 04:18:24;;;;;;;4.90;1.60;;;18.90;67.20;;;;;;5007937;28;20055;-89
2023/09/21 04:20:51;;;;;;;3.60;1.60;;;18.80;67.30;;;;;;4992323;28;20105;-90
2023/09/21 04:23:19;;;;;;;4.32;1.30;;;18.80;67.30;;;;;;5003681;28;20051;-90
2023/09/21 04:25:47;;;;;;;3.73;1.60;;;18.80;67.30;;;;;;5003178;28;20059;-89
2023/09/21 04:28:15;;;;;;;5.45;1.60;;;18.80;67.40;;;;;;4987183;28;20286;-89
2023/09/21 04:30:42;;;;;;;3.83;1.38;;;18.80;67.50;;;;;;4987207;28;20510;-90
2023/09/21 04:33:09;;;;;;;6.60;1.63;;;18.80;67.50;;;;;;5001610;28;20082;-89
2023/09/21 04:35:36;;;;;;;3.75;1.63;;;18.80;67.50;;;;;;4991649;28;20079;-90
2023/09/21 04:38:04;;;;;;;5.33;1.30;;;18.80;67.50;;;;;;5003627;28;20062;-89
2023/09/21 04:40:31;;;;;;;4.88;1.60;;;18.80;67.60;;;;;;4996667;28;20279;-90
2023/09/21 04:42:59;;;;;;;4.00;1.38;;;18.80;67.60;;;;;;5007320;28;20051;-89
2023/09/21 04:45:28;;;;;;;4.57;1.40;;;18.70;67.70;;;;;;4962879;28;20137;-89
2023/09/21 04:48:03;;;;;;;3.80;1.40;;;18.70;67.60;;;;;;4971220;28;20535;-91
2023/09/21 04:50:34;;;;;;;4.63;1.60;;;18.70;67.60;;;;;;4969473;28;20079;-89
2023/09/21 04:53:01;;;;;;;4.18;1.50;;;18.70;67.60;;;;;;5003674;28;20247;-90
2023/09/21 04:55:28;;;;;;;4.63;1.48;;;18.70;67.60;;;;;;4987510;28;20052;-90
2023/09/21 04:57:56;;;;;;;3.53;1.25;;;18.70;67.60;;;;;;4959397;28;20051;-90
2023/09/21 05:00:23;;;;;;;4.50;1.80;;;18.70;67.60;;;;;;4990982;28;20051;-89
2023/09/21 05:02:52;;;;;;;4.27;1.60;;;18.70;67.70;;;;;;4970412;28;20055;-89
2023/09/21 05:05:26;;;;;;;4.75;1.30;;;18.70;67.60;;;;;;4956028;28;20263;-88
2023/09/21 05:07:53;;;;;;;3.67;1.40;;;18.70;67.70;;;;;;4986767;28;20051;-88
2023/09/21 05:10:21;;;;;;;4.32;1.50;;;18.70;67.60;;;;;;4976909;28;20082;-87
2023/09/21 05:12:51;;;;;;;4.70;1.60;;;18.70;67.60;;;;;;4988698;28;20086;-89
2023/09/21 05:15:19;;;;;;;4.97;1.70;;;18.70;67.60;;;;;;4983133;28;20050;-89
2023/09/21 05:17:51;;;;;;;4.18;1.58;;;18.70;67.60;;;;;;5007560;28;20262;-88
2023/09/21 05:20:20;;;;;;;4.65;1.50;;;18.70;67.80;;;;;;4959881;28;20074;-89
2023/09/21 05:22:48;;;;;;;5.13;1.70;;;18.70;67.70;;;;;;5002308;28;20062;-91
2023/09/21 05:25:15;;;;;;;5.50;1.60;;;18.70;67.70;;;;;;4991019;28;20122;-90
2023/09/21 05:27:42;;;;;;;4.53;1.53;;;18.70;67.80;;;;;;5002811;28;20391;-89
2023/09/21 05:30:10;;;;;;;4.30;1.80;;;18.70;67.90;;;;;;4985969;28;20275;-86
2023/09/21 05:32:38;;;;;;;4.68;1.85;;;18.70;68.00;;;;;;5002454;28;20081;-86
2023/09/21 05:35:10;;;;;;;4.63;1.70;;;18.70;67.90;;;;;;5001276;28;20055;-87
2023/09/21 05:37:39;;;;;;;5.15;1.70;;;18.70;68.00;;;;;;5001086;28;20114;-87
2023/09/21 05:40:11;;;;;;;4.33;1.53;;;18.70;68.00;;;;;;4969457;28;20059;-88
2023/09/21 05:42:39;;;;;;;5.60;2.00;;;18.70;68.00;;;;;;5001752;28;20750;-87
2023/09/21 05:45:07;;;;;;;7.93;2.60;;;18.70;68.10;;;;;;4953392;28;20055;-87
2023/09/21 05:47:33;;;;;;;12.60;4.60;;;18.70;68.30;;;;;;5000783;28;20142;-86
2023/09/21 05:50:01;;;;;;;6.40;2.10;;;18.70;68.30;;;;;;4960666;28;20127;-81
2023/09/21 05:52:30;;;;;;;4.27;1.50;;;18.70;68.30;;;;;;4968707;28;20107;-86
2023/09/21 05:55:04;;;;;;;5.20;1.65;;;18.70;68.30;;;;;;4987108;28;20264;-90
2023/09/21 05:57:34;;;;;;;4.75;1.40;;;18.70;68.30;;;;;;5000997;28;20533;-91
2023/09/21 06:00:03;;;;;;;4.78;1.50;;;18.70;68.20;;;;;;5000394;28;20086;-86
2023/09/21 06:02:38;;;;;;;4.90;1.52;;;18.70;68.20;;;;;;4972198;28;20146;-84
2023/09/21 06:05:08;;;;;;;3.57;1.50;;;18.70;68.20;;;;;;4987482;28;20047;-87
2023/09/21 06:07:35;;;;;;;3.78;1.60;;;18.70;68.30;;;;;;4974314;28;20259;-85
2023/09/21 06:10:23;;;;;;;3.90;1.50;;;18.70;68.40;;;;;;5006294;28;20058;-91
2023/09/21 06:12:58;;;;;;;4.25;1.60;;;18.70;68.40;;;;;;4954878;28;20485;-88
2023/09/21 06:15:26;;;;;;;5.32;1.45;;;18.70;68.40;;;;;;4969164;28;20054;-91
2023/09/21 06:17:59;;;;;;;4.07;1.40;;;18.70;68.50;;;;;;5013279;28;20130;-89
2023/09/21 06:20:29;;;;;;;6.13;1.70;;;18.70;68.60;;;;;;5002287;28;20306;-90
2023/09/21 06:22:59;;;;;;;5.60;1.67;;;18.70;68.70;;;;;;4986114;28;20116;-90
2023/09/21 06:25:29;;;;;;;5.65;1.70;;;18.70;68.70;;;;;;5001031;28;20509;-87
2023/09/21 06:27:56;;;;;;;4.30;1.60;;;18.70;68.60;;;;;;5001661;28;20130;-89
2023/09/21 06:30:25;;;;;;;4.73;1.70;;;18.70;68.70;;;;;;4986088;28;20059;-88
2023/09/21 06:32:55;;;;;;;5.80;1.52;;;18.70;68.80;;;;;;5002118;28;20283;-88
2023/09/21 06:35:23;;;;;;;5.53;1.70;;;18.70;68.80;;;;;;4986191;28;20058;-87
2023/09/21 06:37:56;;;;;;;4.10;1.75;;;18.70;68.90;;;;;;4969328;28;20074;-90
2023/09/21 06:40:36;;;;;;;4.60;1.55;;;18.70;69.10;;;;;;4954311;28;20090;-93
2023/09/21 06:43:07;;;;;;;4.47;1.50;;;18.70;69.20;;;;;;5008256;28;20058;-85
2023/09/21 06:45:49;;;;;;;5.10;1.85;;;18.70;69.30;;;;;;5000792;28;20299;-89
2023/09/21 06:51:46;;;;;;;4.55;1.65;;;18.70;69.30;;;;;;4982253;28;20062;-91
2023/09/21 06:54:16;;;;;;;4.80;1.70;;;18.70;69.30;;;;;;5001967;28;20056;-90
2023/09/21 06:56:44;;;;;;;7.20;1.90;;;18.70;69.40;;;;;;4984255;28;20563;-85
2023/09/21 06:59:11;;;;;;;4.25;1.70;;;18.70;69.40;;;;;;4983401;28;20291;-87
2023/09/21 07:01:39;;;;;;;4.57;1.60;;;18.70;69.60;;;;;;4983821;28;20732;-87
2023/09/21 07:04:07;;;;;;;5.55;1.80;;;18.70;69.80;;;;;;4951395;28;20059;-86
2023/09/21 07:06:35;;;;;;;5.35;1.88;;;18.70;69.90;;;;;;4999704;28;20142;-89
2023/09/21 07:09:04;;;;;;;4.30;1.80;;;18.70;70.10;;;;;;4984767;28;20849;-88
2023/09/21 07:11:33;;;;;;;6.07;1.70;;;18.70;70.30;;;;;;5003504;28;20384;-90
2023/09/21 07:14:03;;;;;;;3.60;1.50;;;18.70;70.40;;;;;;5003652;28;20114;-89
2023/09/21 07:16:32;;;;;;;4.68;1.92;;;18.70;70.60;;;;;;4993280;28;20130;-89
2023/09/21 07:18:59;;;;;;;5.40;1.98;;;18.70;70.80;;;;;;4981086;28;20158;-89
2023/09/21 07:21:27;;;;;;;4.50;1.47;;;18.70;70.90;;;;;;4996134;28;20046;-89
2023/09/21 07:23:54;;;;;;;7.15;1.88;;;18.60;71.00;;;;;;4966560;28;20251;-89
2023/09/21 07:26:23;;;;;;;5.10;1.70;;;18.60;71.20;;;;;;4962051;28;20042;-88
2023/09/21 07:28:49;;;;;;;5.00;2.15;;;18.60;71.30;;;;;;4956736;28;20055;-87
2023/09/21 07:31:18;;;;;;;5.60;1.70;;;18.60;71.50;;;;;;4988444;28;20059;-85
2023/09/21 07:33:47;;;;;;;6.27;2.00;;;18.60;71.70;;;;;;4984137;28;20098;-86
2023/09/21 07:36:14;;;;;;;4.30;1.70;;;18.60;71.60;;;;;;4971765;28;20849;-85
2023/09/21 07:38:41;;;;;;;4.95;1.90;;;18.60;71.70;;;;;;4987159;28;20048;-87
2023/09/21 07:41:08;;;;;;;5.75;1.80;;;18.60;71.80;;;;;;4987413;28;20560;-85
2023/09/21 07:43:36;;;;;;;5.53;1.90;;;18.60;72.00;;;;;;4991113;28;20089;-86
2023/09/21 07:46:03;;;;;;;5.10;1.93;;;18.60;72.00;;;;;;5003892;28;20100;-86
2023/09/21 07:48:32;;;;;;;4.85;1.95;;;18.60;72.00;;;;;;5003440;28;20263;-85
2023/09/21 07:51:05;;;;;;;4.78;1.98;;;18.60;72.20;;;;;;4970240;28;20581;-84
2023/09/21 07:53:32;;;;;;;4.22;1.80;;;18.60;72.10;;;;;;4984359;28;20062;-84
2023/09/21 07:56:00;;;;;;;4.80;1.92;;;18.60;72.20;;;;;;4986333;28;21012;-83
2023/09/21 07:58:27;;;;;;;5.47;2.07;;;18.60;72.30;;;;;;5003115;28;20051;-86
2023/09/21 08:00:56;;;;;;;6.55;1.80;;;18.70;72.60;;;;;;5003607;28;20859;-85
2023/09/21 08:03:31;;;;;;;5.90;1.95;;;18.60;72.60;;;;;;4986959;28;20058;-87
2023/09/21 08:06:01;;;;;;;3.80;1.60;;;18.70;72.90;;;;;;4963963;28;21005;-85
2023/09/21 08:08:39;;;;;;;4.85;1.80;;;18.70;72.90;;;;;;4962140;28;20054;-86
2023/09/21 08:11:53;;;;;;;5.27;2.00;;;18.60;73.10;;;;;;4982127;28;20050;-85
2023/09/21 08:14:29;;;;;;;6.53;2.30;;;18.60;73.30;;;;;;4976266;28;20275;-89
2023/09/21 08:16:58;;;;;;;5.53;2.10;;;18.60;73.50;;;;;;4987807;28;20063;-89
2023/09/21 08:19:26;;;;;;;5.57;2.40;;;18.70;74.00;;;;;;4987877;28;20067;-88
2023/09/21 08:22:59;;;;;;;7.13;2.28;;;18.70;74.30;;;;;;5003790;28;20162;-88
2023/09/21 08:25:29;;;;;;;5.47;2.37;;;18.60;74.70;;;;;;5003047;28;20513;-86
2023/09/21 08:27:58;;;;;;;6.03;2.20;;;18.60;74.80;;;;;;4955094;28;20753;-85
2023/09/21 08:30:25;;;;;;;4.25;1.98;;;18.60;75.20;;;;;;4986517;28;20079;-89
2023/09/21 08:32:52;;;;;;;5.60;2.10;;;18.60;75.50;;;;;;4989371;28;20051;-87
2023/09/21 08:35:23;;;;;;;4.32;2.00;;;18.60;75.80;;;;;;4974199;28;20058;-88
2023/09/21 08:37:51;;;;;;;5.00;1.80;;;18.60;75.70;;;;;;4987717;28;20078;-89
2023/09/21 08:40:21;;;;;;;4.95;2.10;;;18.60;76.00;;;;;;4994183;28;20745;-86
2023/09/21 08:42:53;;;;;;;5.25;1.90;;;18.50;76.30;;;;;;4985400;28;20139;-88
2023/09/21 08:45:23;;;;;;;4.95;2.08;;;18.50;76.40;;;;;;4970583;28;20558;-86
2023/09/21 08:47:51;;;;;;;4.65;2.08;;;18.50;76.80;;;;;;4984819;28;20055;-87
2023/09/21 08:50:18;;;;;;;5.30;2.20;;;18.50;76.90;;;;;;4985538;28;20047;-88
2023/09/21 08:52:49;;;;;;;7.38;2.47;;;18.50;77.10;;;;;;4954702;28;20318;-86
2023/09/21 08:55:16;;;;;;;4.57;2.10;;;18.50;77.30;;;;;;4994969;28;20062;-86
2023/09/21 08:57:45;;;;;;;5.57;2.33;;;18.50;77.50;;;;;;4970433;28;20059;-86
2023/09/21 09:00:15;;;;;;;5.50;2.38;;;18.50;77.90;;;;;;4986513;28;20065;-89
2023/09/21 09:02:42;;;;;;;6.60;2.53;;;18.50;77.80;;;;;;4971594;28;20567;-86
2023/09/21 09:05:10;;;;;;;5.07;2.20;;;18.50;78.10;;;;;;4969359;28;20338;-85
2023/09/21 09:07:39;;;;;;;5.32;2.10;;;18.50;78.40;;;;;;4986222;28;20051;-86
2023/09/21 09:10:10;;;;;;;4.53;2.10;;;18.50;78.70;;;;;;4998690;28;20043;-86
2023/09/21 09:12:39;;;;;;;4.85;2.15;;;18.40;78.60;;;;;;4987343;28;20066;-87
2023/09/21 09:15:10;;;;;;;6.40;2.20;;;18.40;78.70;;;;;;4951268;28;20533;-89
2023/09/21 09:17:37;;;;;;;4.95;2.20;;;18.40;78.90;;;;;;5001904;28;20271;-88
2023/09/21 09:20:05;;;;;;;6.03;2.17;;;18.40;79.20;;;;;;4953464;28;20079;-89
2023/09/21 09:22:34;;;;;;;5.03;2.17;;;18.40;79.30;;;;;;4970616;28;20054;-88
2023/09/21 09:25:05;;;;;;;5.05;1.80;;;18.40;79.30;;;;;;4954931;28;20057;-89
2023/09/21 09:27:34;;;;;;;5.07;2.10;;;18.40;79.60;;;;;;4954260;28;20450;-85
2023/09/21 09:30:01;;;;;;;5.18;2.03;;;18.40;79.70;;;;;;4981113;28;20260;-84
2023/09/21 09:32:37;;;;;;;5.82;2.35;;;18.30;79.80;;;;;;5002276;28;20594;-83
2023/09/21 09:35:06;;;;;;;4.60;2.10;;;18.30;79.90;;;;;;4969739;28;20102;-88
2023/09/21 09:37:34;;;;;;;5.18;2.30;;;18.30;79.90;;;;;;4986571;28;20138;-89
2023/09/21 09:40:18;;;;;;;5.27;2.27;;;18.20;80.10;;;;;;4991150;28;20063;-90
2023/09/21 09:42:48;;;;;;;4.32;2.28;;;18.20;80.20;;;;;;5002570;28;20369;-87
2023/09/21 09:45:24;;;;;;;5.75;2.30;;;18.20;80.50;;;;;;5004068;28;20110;-86
2023/09/21 09:47:55;;;;;;;4.93;2.40;;;18.20;80.90;;;;;;4985782;28;20421;-88
2023/09/21 09:50:24;;;;;;;4.93;2.35;;;18.10;81.10;;;;;;5002055;28;20059;-89
2023/09/21 09:53:00;;;;;;;3.17;1.00;;;18.10;81.10;;;;;;5001809;28;20574;-89
2023/09/21 09:55:31;;;;;;;2.75;0.88;;;18.00;80.70;;;;;;4984757;28;20275;-89
2023/09/21 09:58:00;;;;;;;2.88;0.70;;;17.90;80.40;;;;;;4969076;28;20062;-89
2023/09/21 10:00:28;;;;;;;3.25;0.50;;;17.80;80.20;;;;;;4985343;28;20546;-89
2023/09/21 10:02:59;;;;;;;3.85;0.60;;;17.60;80.60;;;;;;4969208;28;20059;-90
2023/09/21 10:05:27;;;;;;;2.93;0.50;;;17.50;80.70;;;;;;4975372;28;20062;-89
2023/09/21 10:07:59;;;;;;;3.08;0.40;;;17.50;80.50;;;;;;4984943;28;20288;-88
2023/09/21 10:10:33;;;;;;;2.75;0.60;;;17.50;80.70;;;;;;5001950;28;20091;-90
2023/09/21 10:13:03;;;;;;;2.75;0.43;;;17.40;80.80;;;;;;4984366;28;20650;-88
2023/09/21 10:15:33;;;;;;;3.03;0.60;;;17.40;81.00;;;;;;4993055;28;20055;-89
2023/09/21 10:18:01;;;;;;;2.33;0.53;;;17.30;81.30;;;;;;4952462;28;20301;-90
2023/09/21 10:20:32;;;;;;;1.95;0.40;;;17.20;81.10;;;;;;4985347;28;20263;-89
2023/09/21 10:23:02;;;;;;;2.40;0.40;;;17.20;81.00;;;;;;4969726;28;20047;-88
2023/09/21 10:25:38;;;;;;;2.60;0.50;;;17.20;80.80;;;;;;4981060;28;20062;-88
2023/09/21 10:28:40;;;;;;;3.20;0.30;;;17.20;81.10;;;;;;4969477;28;20059;-88
2023/09/21 10:31:24;;;;;;;2.27;0.50;;;17.10;80.80;;;;;;4915435;28;20611;-89
2023/09/21 10:34:19;;;;;;;2.55;0.40;;;17.00;81.00;;;;;;4915008;29;20280;-89
2023/09/21 10:36:50;;;;;;;1.90;0.30;;;16.90;81.10;;;;;;4984576;28;20098;-88
2023/09/21 10:39:28;;;;;;;2.25;0.32;;;16.90;81.10;;;;;;4987205;28;20561;-89
2023/09/21 10:42:33;;;;;;;2.83;0.40;;;16.80;81.20;;;;;;4957127;28;20055;-89
2023/09/21 10:45:03;;;;;;;2.03;0.37;;;16.80;81.50;;;;;;4948416;28;20059;-87
2023/09/21 10:47:35;;;;;;;2.70;0.45;;;16.70;81.70;;;;;;4984559;28;20263;-86
2023/09/21 10:50:04;;;;;;;2.08;0.32;;;16.80;81.60;;;;;;4981750;28;20106;-87
2023/09/21 10:52:32;;;;;;;1.65;0.30;;;16.80;81.40;;;;;;4988364;28;20047;-87
2023/09/21 10:55:00;;;;;;;1.70;0.32;;;16.70;81.50;;;;;;4984878;28;20135;-87
2023/09/21 10:57:28;;;;;;;2.47;0.40;;;16.80;81.40;;;;;;4977718;28;20055;-87
2023/09/21 10:59:58;;;;;;;1.90;0.30;;;16.80;81.40;;;;;;4958082;28;20346;-88
2023/09/21 11:02:31;;;;;;;2.40;0.38;;;16.80;81.30;;;;;;4954664;28;20047;-90
2023/09/21 11:05:00;;;;;;;2.53;0.47;;;16.80;81.40;;;;;;4985373;28;20087;-89
2023/09/21 11:07:29;;;;;;;2.08;0.35;;;16.80;81.30;;;;;;4979224;28;20544;-90
2023/09/21 11:09:57;;;;;;;2.50;0.40;;;16.80;81.30;;;;;;4970942;28;20149;-91
2023/09/21 11:12:24;;;;;;;2.10;0.30;;;16.90;81.20;;;;;;4955127;28;20279;-90
2023/09/21 11:14:51;;;;;;;1.92;0.30;;;16.90;81.00;;;;;;4986484;28;20075;-90
2023/09/21 11:17:20;;;;;;;1.80;0.30;;;16.90;81.00;;;;;;4973969;28;20497;-90
2023/09/21 11:19:48;;;;;;;2.22;0.38;;;16.90;81.00;;;;;;5005324;28;20066;-90
2023/09/21 11:22:16;;;;;;;2.03;0.30;;;16.90;80.90;;;;;;4999688;28;20424;-90
2023/09/21 11:24:43;;;;;;;2.42;0.40;;;16.80;80.70;;;;;;4969460;28;20331;-90
2023/09/21 11:27:11;;;;;;;2.70;0.50;;;16.80;80.80;;;;;;4954563;28;20112;-89
2023/09/21 11:29:40;;;;;;;1.75;0.30;;;16.80;80.80;;;;;;4951383;28;20059;-85
2023/09/21 11:32:08;;;;;;;2.38;0.30;;;16.80;80.80;;;;;;4971530;28;20047;-86
2023/09/21 11:34:39;;;;;;;2.07;0.30;;;16.80;80.80;;;;;;4972590;28;20082;-87
2023/09/21 11:37:11;;;;;;;1.80;0.30;;;16.80;80.80;;;;;;4999009;28;20388;-86
2023/09/21 11:39:38;;;;;;;1.63;0.25;;;16.80;80.70;;;;;;4983457;28;20579;-87
2023/09/21 11:42:08;;;;;;;2.33;0.30;;;16.80;80.90;;;;;;4999768;28;20492;-87
2023/09/21 11:44:36;;;;;;;2.28;0.40;;;16.80;81.20;;;;;;4954554;28;20146;-87
2023/09/21 11:47:09;;;;;;;2.67;0.50;;;16.80;81.20;;;;;;4952599;28;20063;-86
2023/09/21 11:49:40;;;;;;;1.88;0.32;;;16.90;81.10;;;;;;4982908;28;20270;-87
2023/09/21 11:52:09;;;;;;;2.15;0.30;;;16.90;80.80;;;;;;4983657;28;20051;-86
2023/09/21 11:54:41;;;;;;;2.13;0.35;;;16.90;80.80;;;;;;4985834;28;20502;-89
2023/09/21 11:57:11;;;;;;;2.33;0.40;;;16.90;80.50;;;;;;4986444;28;20052;-87
2023/09/21 11:59:41;;;;;;;2.40;0.40;;;16.90;80.30;;;;;;5005610;28;20065;-85
2023/09/21 12:02:20;;;;;;;2.03;0.28;;;16.90;80.30;;;;;;4996099;28;20260;-90
2023/09/21 12:05:11;;;;;;;2.42;0.45;;;16.90;80.00;;;;;;4965434;28;20047;-90
2023/09/21 12:07:41;;;;;;;1.70;0.30;;;16.70;79.70;;;;;;4961082;28;20167;-84
2023/09/21 12:10:10;;;;;;;2.13;0.28;;;16.70;79.90;;;;;;4980022;28;20061;-85
2023/09/21 12:12:37;;;;;;;2.13;0.40;;;16.60;80.10;;;;;;4995505;28;20536;-84
2023/09/21 12:15:05;;;;;;;2.30;0.40;;;16.60;80.00;;;;;;4962664;28;20314;-85
2023/09/21 12:17:36;;;;;;;1.90;0.30;;;16.50;80.10;;;;;;4993681;28;20051;-84
2023/09/21 12:20:11;;;;;;;3.25;0.50;;;16.50;80.10;;;;;;4990066;28;20059;-84
2023/09/21 12:22:38;;;;;;;1.95;0.35;;;16.40;80.20;;;;;;5006593;28;20043;-85
2023/09/21 12:25:06;;;;;;;2.30;0.50;;;16.40;80.50;;;;;;4998144;28;20050;-85
2023/09/21 12:27:45;;;;;;;3.25;0.52;;;16.40;80.70;;;;;;4988358;28;20339;-86
2023/09/21 12:30:14;;;;;;;2.63;0.43;;;16.40;80.50;;;;;;4980265;28;20062;-87
2023/09/21 12:32:46;;;;;;;2.25;0.50;;;16.40;80.80;;;;;;4974994;28;20047;-90
2023/09/21 12:35:17;;;;;;;2.00;0.30;;;16.40;80.70;;;;;;4975410;28;20063;-88
2023/09/21 12:37:45;;;;;;;2.40;0.40;;;16.40;80.50;;;;;;5004752;28;20548;-86
2023/09/21 12:40:15;;;;;;;1.95;0.40;;;16.40;80.50;;;;;;4977741;28;20271;-86
2023/09/21 12:42:45;;;;;;;4.05;0.57;;;16.40;80.40;;;;;;4979205;28;20055;-86
2023/09/21 12:45:14;;;;;;;2.13;0.35;;;16.40;80.40;;;;;;4960392;28;20608;-86
2023/09/21 12:47:42;;;;;;;2.55;0.32;;;16.40;80.50;;;;;;4961031;28;20065;-86
2023/09/21 12:50:10;;;;;;;2.17;0.47;;;16.40;80.50;;;;;;4959944;28;20051;-85
2023/09/21 12:52:37;;;;;;;2.22;0.40;;;16.40;80.60;;;;;;5002859;28;20263;-87
2023/09/21 12:55:09;;;;;;;2.85;0.30;;;16.40;80.80;;;;;;4986617;28;20051;-86
2023/09/21 12:57:37;;;;;;;1.92;0.40;;;16.40;80.80;;;;;;4955819;28;20046;-88
2023/09/21 13:00:14;;;;;;;2.83;0.40;;;16.30;80.80;;;;;;4986260;28;20490;-87
2023/09/21 13:02:41;;;;;;;2.13;0.40;;;16.30;80.70;;;;;;5002962;28;20534;-89
2023/09/21 13:05:12;;;;;;;2.10;0.30;;;16.30;80.80;;;;;;4959564;28;20298;-89
2023/09/21 13:07:39;;;;;;;1.85;0.32;;;16.30;80.80;;;;;;4965055;28;20054;-89